Time;durP1;ratioP1;P1;durP2;ratioP2;P2;SDS_P1;SDS_P2;PMS_P1;PMS_P2;Temp;Humidity;BMP_temperature;BMP_pressure;BME280_temperature;BME280_humidity;BME280_pressure;Samples;Min_cycle;Max_cycle;Signal;HPM_P1;HPM_P2
2023/05/14 00:00:36;;;;;;;16.27;14.70;;;;;;;;;;5094778;28;20924;-56
2023/05/14 00:03:03;;;;;;;15.90;14.17;;;;;;;;;;5094621;28;20861;-57
2023/05/14 00:05:34;;;;;;;16.33;14.83;;;;;;;;;;5094532;28;20447;-57
2023/05/14 00:08:05;;;;;;;17.30;15.50;;;;;;;;;;5094452;28;20540;-58
2023/05/14 00:10:32;;;;;;;17.13;15.43;;;;;;;;;;5094387;28;20946;-56
2023/05/14 00:12:58;;;;;;;15.97;14.57;;;;;;;;;;5094509;28;20421;-57
2023/05/14 00:15:25;;;;;;;18.20;16.40;;;;;;;;;;5094396;28;20429;-58
2023/05/14 00:17:52;;;;;;;18.03;16.33;;;;;;;;;;5094183;28;20561;-56
2023/05/14 00:20:19;;;;;;;16.23;14.60;;;;;;;;;;5093489;28;20888;-58
2023/05/14 00:22:46;;;;;;;16.63;15.13;;;;;;;;;;5094111;28;20443;-56
2023/05/14 00:25:14;;;;;;;15.63;14.20;;;;;;;;;;5094375;28;20483;-57
2023/05/14 00:27:41;;;;;;;16.73;15.03;;;;;;;;;;5094150;28;20432;-57
2023/05/14 00:30:08;;;;;;;16.07;14.73;;;;;;;;;;5094096;28;20421;-57
2023/05/14 00:32:35;;;;;;;14.80;13.50;;;;;;;;;;5094061;28;20809;-57
2023/05/14 00:35:03;;;;;;;17.33;15.60;;;;;;;;;;5093893;28;20417;-57
2023/05/14 00:37:30;;;;;;;17.13;14.40;;;;;;;;;;5093901;28;20423;-58
2023/05/14 00:39:57;;;;;;;16.83;15.00;;;;;;;;;;5093972;28;20424;-57
2023/05/14 00:42:25;;;;;;;16.00;14.57;;;;;;;;;;5093588;28;20449;-57
2023/05/14 00:44:52;;;;;;;15.23;13.63;;;;;;;;;;5093762;28;20448;-56
2023/05/14 00:47:19;;;;;;;14.97;13.43;;;;;;;;;;5093715;28;20449;-57
2023/05/14 00:49:46;;;;;;;15.73;14.33;;;;;;;;;;5093590;28;21035;-57
2023/05/14 00:52:13;;;;;;;15.77;14.27;;;;;;;;;;5093773;28;20421;-57
2023/05/14 00:54:40;;;;;;;14.93;13.53;;;;;;;;;;5093726;28;20560;-58
2023/05/14 00:57:07;;;;;;;14.67;13.47;;;;;;;;;;5093677;28;20454;-57
2023/05/14 00:59:36;;;;;;;16.20;14.60;;;;;;;;;;5093614;28;20452;-57
2023/05/14 01:02:03;;;;;;;16.17;14.77;;;;;;;;;;5093392;28;20549;-57
2023/05/14 01:04:34;;;;;;;16.87;15.27;;;;;;;;;;5093653;28;20443;-57
2023/05/14 01:07:10;;;;;;;16.97;15.23;;;;;;;;;;5093595;28;20799;-57
2023/05/14 01:09:42;;;;;;;16.57;14.97;;;;;;;;;;5093516;28;20503;-57
2023/05/14 01:12:12;;;;;;;21.73;14.50;;;;;;;;;;5093387;28;20422;-57
2023/05/14 01:14:42;;;;;;;16.20;13.57;;;;;;;;;;5093204;28;20433;-58
2023/05/14 01:17:11;;;;;;;16.63;14.33;;;;;;;;;;5093441;28;20421;-57
2023/05/14 01:19:40;;;;;;;17.00;15.47;;;;;;;;;;5093285;28;20482;-57
2023/05/14 01:22:08;;;;;;;16.37;14.87;;;;;;;;;;5093230;28;20428;-57
2023/05/14 01:24:35;;;;;;;14.50;13.30;;;;;;;;;;5093264;28;20424;-57
2023/05/14 01:27:08;;;;;;;16.30;14.80;;;;;;;;;;5092966;28;20896;-57
2023/05/14 01:29:37;;;;;;;16.30;14.77;;;;;;;;;;5093285;28;20461;-57
2023/05/14 01:32:06;;;;;;;16.20;14.70;;;;;;;;;;5093256;28;20500;-56
2023/05/14 01:34:35;;;;;;;16.63;15.03;;;;;;;;;;5093131;28;20776;-57
2023/05/14 01:37:03;;;;;;;16.30;13.40;;;;;;;;;;5093081;28;20554;-57
2023/05/14 01:39:31;;;;;;;16.60;15.00;;;;;;;;;;5092799;28;20464;-57
2023/05/14 01:42:01;;;;;;;17.13;15.23;;;;;;;;;;5092810;28;20471;-56
2023/05/14 01:44:28;;;;;;;16.00;14.50;;;;;;;;;;5093016;28;20449;-57
2023/05/14 01:46:55;;;;;;;16.30;14.60;;;;;;;;;;5093075;28;20883;-57
2023/05/14 01:49:24;;;;;;;16.10;14.50;;;;;;;;;;5092988;28;20547;-57
2023/05/14 01:51:51;;;;;;;17.53;15.60;;;;;;;;;;5092903;28;20834;-54
2023/05/14 01:54:18;;;;;;;16.63;14.93;;;;;;;;;;5092766;28;20530;-57
2023/05/14 01:56:46;;;;;;;16.47;14.77;;;;;;;;;;5092967;28;20539;-57
2023/05/14 01:59:13;;;;;;;15.80;14.30;;;;;;;;;;5092906;28;20581;-57
2023/05/14 02:01:40;;;;;;;17.40;15.83;;;;;;;;;;5092911;28;20893;-55
2023/05/14 02:04:09;;;;;;;15.70;14.10;;;;;;;;;;5092835;28;20457;-56
2023/05/14 02:06:36;;;;;;;15.80;14.27;;;;;;;;;;5092812;28;20542;-58
2023/05/14 02:09:03;;;;;;;14.87;13.43;;;;;;;;;;5092599;28;20457;-57
2023/05/14 02:11:30;;;;;;;15.10;13.70;;;;;;;;;;5092860;28;20443;-57
2023/05/14 02:13:58;;;;;;;14.90;13.50;;;;;;;;;;5092811;28;20456;-57
2023/05/14 02:16:25;;;;;;;15.30;13.70;;;;;;;;;;5092638;28;20447;-58
2023/05/14 02:18:52;;;;;;;13.77;12.37;;;;;;;;;;5092529;28;20473;-56
2023/05/14 02:21:19;;;;;;;14.43;13.13;;;;;;;;;;5092531;28;20938;-56
2023/05/14 02:23:47;;;;;;;14.60;13.33;;;;;;;;;;5092674;28;20451;-57
2023/05/14 02:26:14;;;;;;;13.47;12.37;;;;;;;;;;5092629;28;20541;-58
2023/05/14 02:28:41;;;;;;;14.57;13.17;;;;;;;;;;5092662;28;20520;-58
2023/05/14 02:31:09;;;;;;;15.17;13.67;;;;;;;;;;5092521;28;20635;-57
2023/05/14 02:33:36;;;;;;;13.10;11.97;;;;;;;;;;5092431;28;20827;-57
2023/05/14 02:36:03;;;;;;;13.47;12.27;;;;;;;;;;5092644;28;20425;-57
2023/05/14 02:38:30;;;;;;;13.30;12.20;;;;;;;;;;5092523;28;20515;-57
2023/05/14 02:40:56;;;;;;;12.83;11.73;;;;;;;;;;5092353;28;20566;-57
2023/05/14 02:43:23;;;;;;;13.03;11.80;;;;;;;;;;5092921;28;20828;-58
2023/05/14 02:45:50;;;;;;;14.27;12.87;;;;;;;;;;5096194;28;20506;-57
2023/05/14 02:48:21;;;;;;;13.53;11.90;;;;;;;;;;5096075;28;20421;-57
2023/05/14 02:50:48;;;;;;;13.50;12.20;;;;;;;;;;5096000;28;20537;-59
2023/05/14 02:53:15;;;;;;;13.17;11.73;;;;;;;;;;5096225;28;20521;-56
2023/05/14 02:55:42;;;;;;;15.00;12.30;;;;;;;;;;5096114;28;20478;-55
2023/05/14 02:58:11;;;;;;;13.83;12.43;;;;;;;;;;5096072;28;20475;-57
2023/05/14 03:00:38;;;;;;;13.87;12.47;;;;;;;;;;5095804;28;20540;-57
2023/05/14 03:03:05;;;;;;;14.17;12.97;;;;;;;;;;5095774;28;20453;-58
2023/05/14 03:05:35;;;;;;;12.77;11.53;;;;;;;;;;5095933;28;20435;-57
2023/05/14 03:08:02;;;;;;;14.10;12.70;;;;;;;;;;5095875;28;20463;-57
2023/05/14 03:10:29;;;;;;;12.40;11.30;;;;;;;;;;5095812;28;20553;-57
2023/05/14 03:12:56;;;;;;;13.63;11.83;;;;;;;;;;5095661;28;20421;-57
2023/05/14 03:15:25;;;;;;;12.60;11.33;;;;;;;;;;5095569;28;20449;-58
2023/05/14 03:17:52;;;;;;;12.10;10.90;;;;;;;;;;5095735;28;20533;-59
2023/05/14 03:20:19;;;;;;;14.40;13.03;;;;;;;;;;5095621;28;20457;-57
2023/05/14 03:22:47;;;;;;;13.77;12.57;;;;;;;;;;5095549;28;20822;-58
2023/05/14 03:25:14;;;;;;;14.33;13.03;;;;;;;;;;5095507;28;20446;-57
2023/05/14 03:27:41;;;;;;;14.30;12.80;;;;;;;;;;5095424;28;20447;-58
2023/05/14 03:30:09;;;;;;;13.63;12.27;;;;;;;;;;5095242;28;20537;-57
2023/05/14 03:32:37;;;;;;;12.77;11.50;;;;;;;;;;5095383;28;20460;-57
2023/05/14 03:35:04;;;;;;;12.70;11.63;;;;;;;;;;5095386;28;20455;-58
2023/05/14 03:37:31;;;;;;;13.43;12.13;;;;;;;;;;5095327;28;20457;-57
2023/05/14 03:40:01;;;;;;;13.73;11.73;;;;;;;;;;5095176;28;20461;-57
2023/05/14 03:42:28;;;;;;;13.47;12.27;;;;;;;;;;5094902;28;20582;-58
2023/05/14 03:44:55;;;;;;;12.13;10.97;;;;;;;;;;5095200;28;20421;-57
2023/05/14 03:47:24;;;;;;;11.30;10.00;;;;;;;;;;5095158;28;20447;-57
2023/05/14 03:49:51;;;;;;;12.13;10.90;;;;;;;;;;5095074;28;20421;-57
2023/05/14 03:52:18;;;;;;;12.20;11.07;;;;;;;;;;5094843;28;20935;-57
2023/05/14 03:54:45;;;;;;;12.30;11.10;;;;;;;;;;5094246;28;20779;-58
2023/05/14 03:57:15;;;;;;;12.60;11.53;;;;;;;;;;5094269;28;20453;-57
2023/05/14 03:59:42;;;;;;;13.97;11.17;;;;;;;;;;5094800;28;20528;-56
2023/05/14 04:02:09;;;;;;;13.83;12.57;;;;;;;;;;5094839;28;20546;-57
2023/05/14 04:04:36;;;;;;;13.40;12.13;;;;;;;;;;5094617;28;20937;-57
2023/05/14 04:07:05;;;;;;;12.83;10.57;;;;;;;;;;5094551;28;20537;-57
2023/05/14 04:09:31;;;;;;;12.87;11.70;;;;;;;;;;5094478;28;20520;-59
2023/05/14 04:11:58;;;;;;;11.47;10.37;;;;;;;;;;5094692;28;20541;-58
2023/05/14 04:14:27;;;;;;;11.47;10.47;;;;;;;;;;5094590;28;20421;-57
2023/05/14 04:16:55;;;;;;;10.70;9.83;;;;;;;;;;5094516;28;20421;-57
2023/05/14 04:19:22;;;;;;;10.97;9.97;;;;;;;;;;5094377;28;20484;-57
2023/05/14 04:21:49;;;;;;;10.53;9.63;;;;;;;;;;5094331;28;20490;-58
2023/05/14 04:24:19;;;;;;;11.40;10.30;;;;;;;;;;5094177;28;20453;-57
2023/05/14 04:26:46;;;;;;;11.57;10.47;;;;;;;;;;5094344;28;20948;-57
2023/05/14 04:29:13;;;;;;;12.80;11.60;;;;;;;;;;5094326;28;20447;-58
2023/05/14 04:31:41;;;;;;;11.07;10.07;;;;;;;;;;5094200;28;20537;-58
2023/05/14 04:34:08;;;;;;;11.10;10.20;;;;;;;;;;5094099;28;20450;-57
2023/05/14 04:36:35;;;;;;;10.20;9.30;;;;;;;;;;5093995;28;20427;-58
2023/05/14 04:39:02;;;;;;;9.47;8.77;;;;;;;;;;5094176;28;20517;-57
2023/05/14 04:41:29;;;;;;;8.70;8.00;;;;;;;;;;5093774;28;20830;-57
2023/05/14 04:43:57;;;;;;;8.97;8.17;;;;;;;;;;5094052;28;20450;-57
2023/05/14 04:46:26;;;;;;;9.87;8.97;;;;;;;;;;5093894;28;20449;-56
2023/05/14 04:48:55;;;;;;;9.60;8.80;;;;;;;;;;5093843;28;20537;-57
2023/05/14 04:51:22;;;;;;;9.57;8.80;;;;;;;;;;5093761;28;20449;-57
2023/05/14 04:53:49;;;;;;;9.43;8.57;;;;;;;;;;5093916;28;20469;-57
2023/05/14 04:56:15;;;;;;;10.23;9.43;;;;;;;;;;5093774;28;20451;-57
2023/05/14 04:58:42;;;;;;;10.57;8.73;;;;;;;;;;5093719;28;20418;-57
2023/05/14 05:01:09;;;;;;;9.53;8.53;;;;;;;;;;5093543;28;20489;-58
2023/05/14 05:03:36;;;;;;;10.30;9.40;;;;;;;;;;5093555;28;20453;-58
2023/05/14 05:06:05;;;;;;;11.00;9.97;;;;;;;;;;5093241;28;20765;-58
2023/05/14 05:08:31;;;;;;;10.13;9.13;;;;;;;;;;5093651;28;20442;-57
2023/05/14 05:10:58;;;;;;;9.60;8.70;;;;;;;;;;5093372;28;20975;-58
2023/05/14 05:13:25;;;;;;;9.77;8.87;;;;;;;;;;5093540;28;20446;-57
2023/05/14 05:15:52;;;;;;;10.43;9.30;;;;;;;;;;5093379;28;20541;-58
2023/05/14 05:18:19;;;;;;;9.03;8.10;;;;;;;;;;5093327;28;20459;-58
2023/05/14 05:20:46;;;;;;;8.40;7.10;;;;;;;;;;5093148;28;20475;-58
2023/05/14 05:23:14;;;;;;;8.80;8.10;;;;;;;;;;5093443;28;20883;-58
2023/05/14 05:25:41;;;;;;;9.50;8.70;;;;;;;;;;5093346;28;20867;-58
2023/05/14 05:28:12;;;;;;;9.57;8.77;;;;;;;;;;5093285;28;20458;-57
2023/05/14 05:30:39;;;;;;;9.77;8.17;;;;;;;;;;5093232;28;20426;-57
2023/05/14 05:33:06;;;;;;;8.50;7.63;;;;;;;;;;5093107;28;20754;-57
2023/05/14 05:35:33;;;;;;;7.23;6.73;;;;;;;;;;5093187;28;20544;-58
2023/05/14 05:38:00;;;;;;;8.83;7.50;;;;;;;;;;5093019;28;20541;-58
2023/05/14 05:40:28;;;;;;;8.63;7.63;;;;;;;;;;5092646;28;21003;-59
2023/05/14 05:42:55;;;;;;;7.03;6.43;;;;;;;;;;5092932;28;20939;-57
2023/05/14 05:45:22;;;;;;;7.13;6.53;;;;;;;;;;5092906;28;20453;-58
2023/05/14 05:47:48;;;;;;;7.30;6.60;;;;;;;;;;5092909;28;20875;-57
2023/05/14 05:50:15;;;;;;;7.13;6.43;;;;;;;;;;5093036;28;20542;-56
2023/05/14 05:52:42;;;;;;;6.87;6.33;;;;;;;;;;5092909;28;20554;-57
2023/05/14 05:55:10;;;;;;;6.97;6.37;;;;;;;;;;5092891;28;20447;-57
2023/05/14 05:57:38;;;;;;;6.97;6.37;;;;;;;;;;5092814;28;20489;-57
2023/05/14 06:00:11;;;;;;;7.33;6.73;;;;;;;;;;5092663;28;20557;-57
2023/05/14 06:02:40;;;;;;;7.37;6.70;;;;;;;;;;5092858;28;20823;-57
2023/05/14 06:05:08;;;;;;;7.20;6.60;;;;;;;;;;5092928;28;20479;-57
2023/05/14 06:07:35;;;;;;;17.33;6.93;;;;;;;;;;5092695;28;20499;-56
2023/05/14 06:10:02;;;;;;;7.33;6.27;;;;;;;;;;5092733;28;20454;-57
2023/05/14 06:12:29;;;;;;;6.40;5.80;;;;;;;;;;5092535;28;20465;-57
2023/05/14 06:14:57;;;;;;;6.73;6.17;;;;;;;;;;5092769;28;20452;-57
2023/05/14 06:17:24;;;;;;;7.03;6.30;;;;;;;;;;5092681;28;20478;-57
2023/05/14 06:19:51;;;;;;;8.10;6.00;;;;;;;;;;5095580;28;20885;-57
2023/05/14 06:22:18;;;;;;;6.20;5.60;;;;;;;;;;5096652;28;20456;-57
2023/05/14 06:24:45;;;;;;;7.50;6.27;;;;;;;;;;5096469;28;20508;-54
2023/05/14 06:27:12;;;;;;;10.73;6.67;;;;;;;;;;5096354;28;20565;-56
2023/05/14 06:29:39;;;;;;;7.23;6.50;;;;;;;;;;5096465;28;20534;-57
2023/05/14 06:32:12;;;;;;;6.43;5.83;;;;;;;;;;5096250;28;20455;-57
2023/05/14 06:34:39;;;;;;;6.33;5.70;;;;;;;;;;5096411;28;20443;-57
2023/05/14 06:37:08;;;;;;;6.13;5.53;;;;;;;;;;5096286;28;20887;-57
2023/05/14 06:39:35;;;;;;;5.87;5.40;;;;;;;;;;5096213;28;20863;-56
2023/05/14 06:42:04;;;;;;;6.20;5.70;;;;;;;;;;5095959;28;20793;-59
2023/05/14 06:44:31;;;;;;;8.60;5.50;;;;;;;;;;5096448;28;20534;-58
2023/05/14 06:46:58;;;;;;;6.60;6.00;;;;;;;;;;5096246;28;20939;-57
2023/05/14 06:49:26;;;;;;;5.90;5.40;;;;;;;;;;5096028;28;20455;-57
2023/05/14 06:51:53;;;;;;;8.23;5.40;;;;;;;;;;5095886;28;20495;-57
2023/05/14 06:54:22;;;;;;;6.67;5.50;;;;;;;;;;5095708;28;20965;-57
2023/05/14 06:56:49;;;;;;;8.43;5.73;;;;;;;;;;5095805;28;20459;-58
2023/05/14 06:59:16;;;;;;;5.63;5.23;;;;;;;;;;5095934;28;20878;-58
2023/05/14 07:01:43;;;;;;;7.67;4.73;;;;;;;;;;5095649;28;20483;-57
2023/05/14 07:04:10;;;;;;;5.93;5.43;;;;;;;;;;5095709;28;20461;-57
2023/05/14 07:06:38;;;;;;;5.73;5.23;;;;;;;;;;5095574;28;20457;-58
2023/05/14 07:09:05;;;;;;;6.33;5.20;;;;;;;;;;5095660;28;20938;-58
2023/05/14 07:11:33;;;;;;;7.73;5.47;;;;;;;;;;5095958;28;20529;-58
2023/05/14 07:14:00;;;;;;;7.00;4.97;;;;;;;;;;5095647;28;20815;-57
2023/05/14 07:16:27;;;;;;;5.93;5.50;;;;;;;;;;5095525;28;20547;-57
2023/05/14 07:18:54;;;;;;;4.47;4.10;;;;;;;;;;5095381;28;20493;-57
2023/05/14 07:21:20;;;;;;;6.33;4.30;;;;;;;;;;5095216;28;20476;-57
2023/05/14 07:23:49;;;;;;;5.80;4.57;;;;;;;;;;5095250;28;21080;-58
2023/05/14 07:26:16;;;;;;;7.60;5.00;;;;;;;;;;5095432;28;20449;-58
2023/05/14 07:28:42;;;;;;;7.93;5.30;;;;;;;;;;5095366;28;20555;-57
2023/05/14 07:31:09;;;;;;;8.33;4.87;;;;;;;;;;5095068;28;20459;-58
2023/05/14 07:33:36;;;;;;;5.40;4.90;;;;;;;;;;5095414;28;20448;-58
2023/05/14 07:36:05;;;;;;;5.57;4.90;;;;;;;;;;5095050;28;20451;-58
2023/05/14 07:38:32;;;;;;;5.90;5.17;;;;;;;;;;5095213;28;20827;-57
2023/05/14 07:41:01;;;;;;;5.40;4.90;;;;;;;;;;5094952;28;20491;-57
2023/05/14 07:43:27;;;;;;;4.83;4.43;;;;;;;;;;5095008;28;20543;-58
2023/05/14 07:45:55;;;;;;;4.70;4.10;;;;;;;;;;5094985;28;20550;-57
2023/05/14 07:48:22;;;;;;;6.80;4.17;;;;;;;;;;5094856;28;20453;-58
2023/05/14 07:50:50;;;;;;;4.53;3.67;;;;;;;;;;5095023;28;20540;-59
2023/05/14 07:53:17;;;;;;;4.20;3.80;;;;;;;;;;5094911;28;20449;-59
2023/05/14 07:55:46;;;;;;;3.60;3.40;;;;;;;;;;5094912;28;20447;-58
2023/05/14 07:58:15;;;;;;;4.53;3.63;;;;;;;;;;5094922;28;20456;-57
2023/05/14 08:00:44;;;;;;;8.70;5.43;;;;;;;;;;5094543;28;20928;-58
2023/05/14 08:03:11;;;;;;;4.30;3.90;;;;;;;;;;5094739;28;20456;-57
2023/05/14 08:05:40;;;;;;;4.17;3.80;;;;;;;;;;5094482;28;20456;-57
2023/05/14 08:08:07;;;;;;;4.57;4.00;;;;;;;;;;5094513;28;20445;-57
2023/05/14 08:10:34;;;;;;;7.40;3.67;;;;;;;;;;5094467;28;20452;-56
2023/05/14 08:13:01;;;;;;;3.70;3.40;;;;;;;;;;5094408;28;21019;-57
2023/05/14 08:15:29;;;;;;;3.73;3.33;;;;;;;;;;5094223;28;20453;-57
2023/05/14 08:18:02;;;;;;;4.07;3.60;;;;;;;;;;5094363;28;20449;-59
2023/05/14 08:20:29;;;;;;;5.83;3.03;;;;;;;;;;5094388;28;20445;-57
2023/05/14 08:22:56;;;;;;;5.80;3.23;;;;;;;;;;5094040;28;20512;-57
2023/05/14 08:25:23;;;;;;;5.03;3.57;;;;;;;;;;5094126;28;20792;-57
2023/05/14 08:27:53;;;;;;;4.30;3.50;;;;;;;;;;5093961;28;20481;-59
2023/05/14 08:30:20;;;;;;;3.63;3.43;;;;;;;;;;5093868;28;20458;-58
2023/05/14 08:32:48;;;;;;;5.93;3.80;;;;;;;;;;5093786;28;20970;-57
2023/05/14 08:35:15;;;;;;;3.10;2.90;;;;;;;;;;5093994;28;20536;-57
2023/05/14 08:37:42;;;;;;;4.43;3.50;;;;;;;;;;5093772;28;20932;-57
2023/05/14 08:40:10;;;;;;;4.80;3.40;;;;;;;;;;5093909;28;20450;-56
2023/05/14 08:42:39;;;;;;;3.80;3.50;;;;;;;;;;5092867;28;20599;-58
2023/05/14 08:45:08;;;;;;;4.50;3.63;;;;;;;;;;5093952;28;20449;-56
2023/05/14 08:47:35;;;;;;;3.43;3.10;;;;;;;;;;5093944;28;20514;-57
2023/05/14 08:50:05;;;;;;;3.83;3.53;;;;;;;;;;5093920;28;20449;-58
2023/05/14 08:52:32;;;;;;;6.23;3.23;;;;;;;;;;5093826;28;20945;-57
2023/05/14 08:55:00;;;;;;;3.10;2.90;;;;;;;;;;5093690;28;20452;-57
2023/05/14 08:57:29;;;;;;;4.53;3.23;;;;;;;;;;5093836;28;20454;-60
2023/05/14 08:59:58;;;;;;;3.30;3.00;;;;;;;;;;5093622;28;20991;-58
2023/05/14 09:02:25;;;;;;;3.67;3.37;;;;;;;;;;5093549;28;20575;-58
2023/05/14 09:04:57;;;;;;;6.43;3.57;;;;;;;;;;5093617;28;20449;-58
2023/05/14 09:07:26;;;;;;;3.90;3.57;;;;;;;;;;5093318;28;20451;-59
2023/05/14 09:09:53;;;;;;;3.30;3.00;;;;;;;;;;5093631;28;20447;-58
2023/05/14 09:12:22;;;;;;;4.10;3.40;;;;;;;;;;5093550;28;20451;-58
2023/05/14 09:14:51;;;;;;;3.60;3.30;;;;;;;;;;5093620;28;20463;-58
2023/05/14 09:17:19;;;;;;;3.40;3.20;;;;;;;;;;5093438;28;20449;-58
2023/05/14 09:19:47;;;;;;;3.50;3.20;;;;;;;;;;5093328;28;20489;-58
2023/05/14 09:22:15;;;;;;;3.53;3.23;;;;;;;;;;5093074;28;20860;-58
2023/05/14 09:24:44;;;;;;;6.03;3.10;;;;;;;;;;5093650;28;20544;-57
2023/05/14 09:27:15;;;;;;;4.00;3.53;;;;;;;;;;5093347;28;20447;-58
2023/05/14 09:29:45;;;;;;;5.00;3.00;;;;;;;;;;5093349;28;20970;-58
2023/05/14 09:32:12;;;;;;;2.70;2.50;;;;;;;;;;5093158;28;20457;-58
2023/05/14 09:34:38;;;;;;;3.50;3.20;;;;;;;;;;5093068;28;20541;-58
2023/05/14 09:37:06;;;;;;;3.57;3.27;;;;;;;;;;5093328;28;20464;-57
2023/05/14 09:39:35;;;;;;;4.47;3.03;;;;;;;;;;5093205;28;20561;-57
2023/05/14 09:42:03;;;;;;;3.00;2.70;;;;;;;;;;5092835;28;20485;-58
2023/05/14 09:44:30;;;;;;;3.43;3.13;;;;;;;;;;5093005;28;20868;-57
2023/05/14 09:46:57;;;;;;;3.37;2.53;;;;;;;;;;5092780;28;20964;-58
2023/05/14 09:49:24;;;;;;;2.70;2.50;;;;;;;;;;5092759;28;20534;-58
2023/05/14 09:51:51;;;;;;;2.97;2.40;;;;;;;;;;5093073;28;20446;-58
2023/05/14 09:54:18;;;;;;;3.70;2.60;;;;;;;;;;5095022;28;20537;-58
2023/05/14 09:56:45;;;;;;;3.20;2.90;;;;;;;;;;5097089;28;20441;-58
2023/05/14 09:59:13;;;;;;;2.73;2.53;;;;;;;;;;5097017;28;20449;-58
2023/05/14 10:01:42;;;;;;;3.50;2.37;;;;;;;;;;5096850;28;20466;-58
2023/05/14 10:04:10;;;;;;;3.90;3.10;;;;;;;;;;5097109;28;20490;-59
2023/05/14 10:06:38;;;;;;;4.00;3.20;;;;;;;;;;5096973;28;20446;-58
2023/05/14 10:09:06;;;;;;;3.40;3.10;;;;;;;;;;5096858;28;20588;-57
2023/05/14 10:11:34;;;;;;;3.53;3.13;;;;;;;;;;5097110;28;20461;-57
2023/05/14 10:14:03;;;;;;;3.13;2.67;;;;;;;;;;5096845;28;20537;-58
2023/05/14 10:16:33;;;;;;;4.93;3.20;;;;;;;;;;5096621;28;20446;-58
2023/05/14 10:19:03;;;;;;;4.80;3.33;;;;;;;;;;5096904;28;20489;-58
2023/05/14 10:21:31;;;;;;;2.90;2.70;;;;;;;;;;5096653;28;20454;-58
2023/05/14 10:24:00;;;;;;;4.13;2.73;;;;;;;;;;5096629;28;20455;-58
2023/05/14 10:26:28;;;;;;;3.57;2.87;;;;;;;;;;5096567;28;20457;-58
2023/05/14 10:28:58;;;;;;;3.83;2.73;;;;;;;;;;5096596;28;20446;-58
2023/05/14 10:31:45;;;;;;;3.33;3.03;;;;;;;;;;5096674;28;20461;-58
2023/05/14 10:34:26;;;;;;;3.80;3.50;;;;;;;;;;5096509;28;20537;-57
2023/05/14 10:36:53;;;;;;;3.20;2.90;;;;;;;;;;5096492;28;20529;-58
2023/05/14 10:39:20;;;;;;;4.60;3.53;;;;;;;;;;5096179;28;20453;-58
2023/05/14 10:41:48;;;;;;;6.20;3.20;;;;;;;;;;5096229;28;20479;-57
2023/05/14 10:44:17;;;;;;;3.50;2.90;;;;;;;;;;5096347;28;20537;-58
2023/05/14 10:46:47;;;;;;;3.40;2.97;;;;;;;;;;5096268;28;20882;-57
2023/05/14 10:49:16;;;;;;;3.33;2.97;;;;;;;;;;5096262;28;20869;-57
2023/05/14 10:51:43;;;;;;;3.40;3.20;;;;;;;;;;5096024;28;20451;-58
2023/05/14 10:54:10;;;;;;;3.60;3.37;;;;;;;;;;5096323;28;20451;-58
2023/05/14 10:56:37;;;;;;;3.90;3.60;;;;;;;;;;5096072;28;20453;-58
2023/05/14 10:59:04;;;;;;;3.80;3.50;;;;;;;;;;5095826;28;20451;-58
2023/05/14 11:01:32;;;;;;;3.67;3.37;;;;;;;;;;5095945;28;20446;-58
2023/05/14 11:04:00;;;;;;;4.27;3.87;;;;;;;;;;5095395;28;20485;-58
2023/05/14 11:06:27;;;;;;;3.40;3.20;;;;;;;;;;5095560;28;20463;-58
2023/05/14 11:08:55;;;;;;;3.60;3.40;;;;;;;;;;5095724;28;20454;-58
2023/05/14 11:11:22;;;;;;;3.40;3.20;;;;;;;;;;5095749;28;20447;-57
2023/05/14 11:13:53;;;;;;;3.87;3.47;;;;;;;;;;5095716;28;20447;-57
2023/05/14 11:16:22;;;;;;;3.93;3.53;;;;;;;;;;5095624;28;20453;-58
2023/05/14 11:18:54;;;;;;;7.10;3.40;;;;;;;;;;5095369;28;20534;-58
2023/05/14 11:21:22;;;;;;;6.03;3.03;;;;;;;;;;5095765;28;20497;-58
2023/05/14 11:23:49;;;;;;;4.43;4.03;;;;;;;;;;5095778;28;20478;-57
2023/05/14 11:26:16;;;;;;;5.17;3.87;;;;;;;;;;5095448;28;20886;-58
2023/05/14 11:28:45;;;;;;;3.97;3.70;;;;;;;;;;5095368;28;20537;-57
2023/05/14 11:31:12;;;;;;;4.00;3.57;;;;;;;;;;5095344;28;20844;-59
2023/05/14 11:33:40;;;;;;;4.00;3.00;;;;;;;;;;5095228;28;20545;-58
2023/05/14 11:36:07;;;;;;;4.80;3.60;;;;;;;;;;5095502;28;20510;-57
2023/05/14 11:38:35;;;;;;;4.30;3.60;;;;;;;;;;5095216;28;20537;-57
2023/05/14 11:41:03;;;;;;;3.30;3.10;;;;;;;;;;5095004;28;20886;-58
2023/05/14 11:43:30;;;;;;;3.40;3.20;;;;;;;;;;5094950;28;20491;-58
2023/05/14 11:45:57;;;;;;;3.90;3.40;;;;;;;;;;5094876;28;20450;-58
2023/05/14 11:48:24;;;;;;;3.63;3.30;;;;;;;;;;5094934;28;20889;-59
2023/05/14 11:50:52;;;;;;;4.17;3.77;;;;;;;;;;5094916;28;20449;-58
2023/05/14 11:53:19;;;;;;;3.93;3.40;;;;;;;;;;5094857;28;20456;-58
2023/05/14 11:55:48;;;;;;;8.33;3.33;;;;;;;;;;5094684;28;20453;-57
2023/05/14 11:58:15;;;;;;;3.40;3.20;;;;;;;;;;5094663;28;20453;-58
2023/05/14 12:00:44;;;;;;;3.30;3.10;;;;;;;;;;5094529;28;20446;-58
2023/05/14 12:03:11;;;;;;;3.30;3.00;;;;;;;;;;5094704;28;20486;-57
2023/05/14 12:05:39;;;;;;;4.50;3.40;;;;;;;;;;5094697;28;20560;-58
2023/05/14 12:08:19;;;;;;;9.10;3.83;;;;;;;;;;5094538;28;20870;-58
2023/05/14 12:10:49;;;;;;;5.70;3.43;;;;;;;;;;5094379;28;20459;-58
2023/05/14 12:13:17;;;;;;;5.20;3.17;;;;;;;;;;5094969;28;20449;-58
2023/05/14 12:15:47;;;;;;;5.03;3.87;;;;;;;;;;5093934;28;20532;-57
2023/05/14 12:18:14;;;;;;;3.40;3.17;;;;;;;;;;5094307;28;20533;-58
2023/05/14 12:20:46;;;;;;;3.23;3.03;;;;;;;;;;5094307;28;20447;-58
2023/05/14 12:23:13;;;;;;;4.30;3.20;;;;;;;;;;5094195;28;20479;-59
2023/05/14 12:25:40;;;;;;;4.90;3.17;;;;;;;;;;5094013;28;20878;-58
2023/05/14 12:28:15;;;;;;;5.40;3.20;;;;;;;;;;5094405;28;20482;-58
2023/05/14 12:30:42;;;;;;;4.40;4.10;;;;;;;;;;5094265;28;20446;-58
2023/05/14 12:33:09;;;;;;;3.03;2.57;;;;;;;;;;5094244;28;20893;-58
2023/05/14 12:35:36;;;;;;;2.83;2.63;;;;;;;;;;5094015;28;20813;-58
2023/05/14 12:38:04;;;;;;;2.83;2.63;;;;;;;;;;5093886;28;20451;-58
2023/05/14 12:40:30;;;;;;;4.47;3.53;;;;;;;;;;5093889;28;20435;-59
2023/05/14 12:42:59;;;;;;;8.40;3.00;;;;;;;;;;5093974;28;20491;-57
2023/05/14 12:45:27;;;;;;;3.67;3.37;;;;;;;;;;5093928;28;20447;-56
2023/05/14 12:47:54;;;;;;;3.43;2.97;;;;;;;;;;5093814;28;20558;-57
2023/05/14 12:50:21;;;;;;;4.20;3.10;;;;;;;;;;5093895;28;20494;-57
2023/05/14 12:52:48;;;;;;;3.73;3.43;;;;;;;;;;5093850;28;21007;-57
2023/05/14 12:55:15;;;;;;;4.60;3.00;;;;;;;;;;5093738;28;20542;-57
2023/05/14 12:57:42;;;;;;;3.17;2.87;;;;;;;;;;5093641;28;20456;-57
2023/05/14 13:00:10;;;;;;;3.53;3.23;;;;;;;;;;5093532;28;20453;-57
2023/05/14 13:02:38;;;;;;;3.17;2.87;;;;;;;;;;5093306;28;21003;-58
2023/05/14 13:05:05;;;;;;;3.30;2.70;;;;;;;;;;5093516;28;20534;-56
2023/05/14 13:07:32;;;;;;;3.70;3.40;;;;;;;;;;5093603;28;20874;-55
2023/05/14 13:09:59;;;;;;;2.80;2.60;;;;;;;;;;5093494;28;20493;-57
2023/05/14 13:12:26;;;;;;;2.90;2.70;;;;;;;;;;5093328;28;20856;-58
2023/05/14 13:14:53;;;;;;;5.37;2.97;;;;;;;;;;5093252;28;20545;-58
2023/05/14 13:17:20;;;;;;;4.40;3.00;;;;;;;;;;5093265;28;20461;-58
2023/05/14 13:19:48;;;;;;;7.63;3.10;;;;;;;;;;5092998;28;20545;-57
2023/05/14 13:22:17;;;;;;;4.47;2.83;;;;;;;;;;5093053;28;21007;-57
2023/05/14 13:24:44;;;;;;;3.10;2.77;;;;;;;;;;5093450;28;20546;-57
2023/05/14 13:27:11;;;;;;;3.07;2.87;;;;;;;;;;5092907;28;20446;-56
2023/05/14 13:29:38;;;;;;;4.37;2.63;;;;;;;;;;5093411;28;20450;-57
2023/05/14 13:32:05;;;;;;;7.63;3.17;;;;;;;;;;5093015;28;21033;-57
2023/05/14 13:34:32;;;;;;;3.10;2.90;;;;;;;;;;5093115;28;20524;-59
2023/05/14 13:37:01;;;;;;;2.60;2.50;;;;;;;;;;5093110;28;20455;-58
2023/05/14 13:39:28;;;;;;;3.00;2.80;;;;;;;;;;5093060;28;20447;-57
2023/05/14 13:41:55;;;;;;;2.70;2.07;;;;;;;;;;5092920;28;20474;-57
2023/05/14 13:44:22;;;;;;;2.87;2.20;;;;;;;;;;5092827;28;20481;-60
2023/05/14 13:46:51;;;;;;;2.80;2.60;;;;;;;;;;5092754;28;20624;-57
2023/05/14 13:49:18;;;;;;;2.63;2.43;;;;;;;;;;5093034;28;20538;-57
2023/05/14 13:51:45;;;;;;;3.20;2.73;;;;;;;;;;5092852;28;20447;-57
2023/05/14 13:54:13;;;;;;;2.40;2.20;;;;;;;;;;5092872;28;20451;-57
2023/05/14 13:56:40;;;;;;;4.03;2.60;;;;;;;;;;5092805;28;20458;-57
2023/05/14 13:59:07;;;;;;;3.30;2.57;;;;;;;;;;5092746;28;20500;-58
2023/05/14 14:01:34;;;;;;;4.80;2.63;;;;;;;;;;5092831;28;20488;-57
2023/05/14 14:04:01;;;;;;;3.33;3.00;;;;;;;;;;5092770;28;20574;-57
2023/05/14 14:06:31;;;;;;;6.60;2.60;;;;;;;;;;5092924;28;20479;-57
2023/05/14 14:08:58;;;;;;;3.37;2.57;;;;;;;;;;5092760;28;20557;-57
2023/05/14 14:11:26;;;;;;;6.27;3.17;;;;;;;;;;5092731;28;20460;-57
2023/05/14 14:13:53;;;;;;;2.77;2.57;;;;;;;;;;5092590;28;20447;-57
2023/05/14 14:16:20;;;;;;;6.03;3.60;;;;;;;;;;5092868;28;20534;-58
2023/05/14 14:18:47;;;;;;;3.60;2.80;;;;;;;;;;5092764;28;20542;-57
2023/05/14 14:21:16;;;;;;;2.60;2.40;;;;;;;;;;5092613;28;20442;-57
2023/05/14 14:23:43;;;;;;;3.10;2.90;;;;;;;;;;5092626;28;20516;-57
2023/05/14 14:26:10;;;;;;;3.70;3.10;;;;;;;;;;5092592;28;20447;-59
2023/05/14 14:28:39;;;;;;;4.97;3.20;;;;;;;;;;5092620;28;20525;-58
2023/05/14 14:31:06;;;;;;;2.80;2.60;;;;;;;;;;5092864;28;20451;-58
2023/05/14 14:33:33;;;;;;;5.57;2.87;;;;;;;;;;5092625;28;20462;-58
2023/05/14 14:36:00;;;;;;;3.17;2.87;;;;;;;;;;5092649;28;20516;-58